createdAt,value
2023-04-25T00:01:21.168Z,31.05
2023-04-25T00:03:48.244Z,27.95
2023-04-25T00:06:15.550Z,32.65
2023-04-25T00:08:42.483Z,38.30
2023-04-25T00:11:09.110Z,41.63
2023-04-25T00:13:35.773Z,35.47
2023-04-25T00:16:03.577Z,31.83
2023-04-25T00:18:30.496Z,31.77
2023-04-25T00:20:57.243Z,32.30
2023-04-25T00:23:24.757Z,31.25
2023-04-25T00:25:51.846Z,37.30
2023-04-25T00:28:18.596Z,31.70
2023-04-25T00:30:45.421Z,35.10
2023-04-25T00:33:12.266Z,27.67
2023-04-25T00:35:39.310Z,36.13
2023-04-25T00:38:06.199Z,30.25
2023-04-25T00:40:32.940Z,39.42
2023-04-25T00:42:59.613Z,26.05
2023-04-25T00:45:30.480Z,29.77
2023-04-25T00:47:57.588Z,36.08
2023-04-25T00:50:25.536Z,31.60
2023-04-25T00:52:53.100Z,31.67
2023-04-25T00:55:20.852Z,46.50
2023-04-25T00:57:47.868Z,33.80
2023-04-25T01:00:15.543Z,29.20
2023-04-25T01:02:43.364Z,26.67
2023-04-25T01:05:10.384Z,31.15
2023-04-25T01:07:37.254Z,38.50
2023-04-25T01:10:04.823Z,32.15
2023-04-25T01:12:31.740Z,38.53
2023-04-25T01:14:58.655Z,35.53
2023-04-25T01:17:25.358Z,36.25
2023-04-25T01:19:52.333Z,38.60
2023-04-25T01:22:19.572Z,39.13
2023-04-25T01:24:46.945Z,31.85
2023-04-25T01:27:14.306Z,46.10
2023-04-25T01:29:41.406Z,38.08
2023-04-25T01:32:08.512Z,33.67
2023-04-25T01:34:35.464Z,40.35
2023-04-25T01:37:02.746Z,43.97
2023-04-25T01:39:29.698Z,43.60
2023-04-25T01:41:57.597Z,42.55
2023-04-25T01:44:24.460Z,47.67
2023-04-25T01:46:51.190Z,62.03
2023-04-25T01:49:17.928Z,58.15
2023-04-25T01:51:45.452Z,50.17
2023-04-25T01:54:13.264Z,54.65
2023-04-25T01:56:41.032Z,47.08
2023-04-25T01:59:10.406Z,53.25
2023-04-25T02:01:37.151Z,49.88
2023-04-25T02:04:21.684Z,66.55
2023-04-25T02:06:48.378Z,55.13
2023-04-25T02:09:16.154Z,46.70
2023-04-25T02:11:47.693Z,67.95
2023-04-25T02:14:52.563Z,64.82
2023-04-25T02:17:27.286Z,56.50
2023-04-25T02:19:54.023Z,68.18
2023-04-25T02:22:20.652Z,66.10
2023-04-25T02:24:47.671Z,70.95
2023-04-25T02:27:14.744Z,65.07
2023-04-25T02:29:41.418Z,76.80
2023-04-25T02:32:10.365Z,88.65
2023-04-25T02:34:37.466Z,76.93
2023-04-25T02:37:04.150Z,78.88
2023-04-25T02:39:30.758Z,92.65
2023-04-25T02:41:57.628Z,100.95
2023-04-25T02:44:24.339Z,104.68
2023-04-25T02:46:51.354Z,91.18
2023-04-25T02:49:18.064Z,87.28
2023-04-25T02:51:44.693Z,88.55
2023-04-25T02:54:11.361Z,78.78
2023-04-25T02:56:41.792Z,92.07
2023-04-25T02:59:14.093Z,93.60
2023-04-25T03:01:43.993Z,79.63
2023-04-25T03:04:10.764Z,82.80
2023-04-25T03:06:37.433Z,109.22
2023-04-25T03:09:04.861Z,85.88
2023-04-25T03:11:31.571Z,85.40
2023-04-25T03:13:58.458Z,77.70
2023-04-25T03:16:25.313Z,89.20
2023-04-25T03:18:52.185Z,82.95
2023-04-25T03:21:19.010Z,84.15
2023-04-25T03:23:45.867Z,74.22
2023-04-25T03:26:12.537Z,70.93
2023-04-25T03:28:40.613Z,70.38
2023-04-25T03:31:07.558Z,69.28
2023-04-25T03:33:34.236Z,70.80
2023-04-25T03:36:01.454Z,68.45
2023-04-25T03:38:29.209Z,60.78
2023-04-25T03:40:57.243Z,55.45
2023-04-25T03:43:45.840Z,53.72
2023-04-25T03:46:14.124Z,44.55
2023-04-25T03:48:42.077Z,55.33
2023-04-25T03:51:11.082Z,42.55
2023-04-25T03:53:41.821Z,45.85
2023-04-25T03:56:21.354Z,33.90
2023-04-25T03:58:53.820Z,46.35
2023-04-25T04:01:24.415Z,40.72
2023-04-25T04:03:51.314Z,37.90
2023-04-25T04:06:18.739Z,40.40
2023-04-25T04:08:49.254Z,25.20
2023-04-25T04:11:16.073Z,34.63
2023-04-25T04:13:42.782Z,23.30
2023-04-25T04:16:09.640Z,26.80
2023-04-25T04:18:36.738Z,31.23
2023-04-25T04:21:03.618Z,30.23
2023-04-25T04:23:33.072Z,39.08
2023-04-25T04:26:00.668Z,32.75
2023-04-25T04:28:45.901Z,30.58
2023-04-25T04:31:20.527Z,40.17
2023-04-25T04:33:48.019Z,27.40
2023-04-25T04:36:16.719Z,30.10
2023-04-25T04:38:43.454Z,27.98
2023-04-25T04:44:03.901Z,27.63
2023-04-25T04:46:47.640Z,28.83
2023-04-25T04:49:41.008Z,29.48
2023-04-25T04:52:26.121Z,29.58
2023-04-25T04:55:00.032Z,36.37
2023-04-25T04:57:42.024Z,34.50
2023-04-25T05:00:22.714Z,36.85
2023-04-25T05:03:15.546Z,44.47
2023-04-25T05:06:03.757Z,56.75
2023-04-25T05:08:38.116Z,49.58
2023-04-25T05:11:37.273Z,32.58
2023-04-25T05:14:19.512Z,41.38
2023-04-25T05:17:07.478Z,47.08
2023-04-25T05:19:46.337Z,36.45
2023-04-25T05:22:24.087Z,37.70
2023-04-25T05:24:59.424Z,35.97
2023-04-25T05:27:45.119Z,36.83
2023-04-25T05:30:23.131Z,52.58
2023-04-25T05:33:05.724Z,47.63
2023-04-25T05:35:33.278Z,49.42
2023-04-25T05:38:00.907Z,35.30
2023-04-25T05:41:03.174Z,45.28
2023-04-25T05:43:39.739Z,45.10
2023-04-25T05:46:20.828Z,39.38
2023-04-25T05:49:09.598Z,49.22
2023-04-25T05:51:58.627Z,38.08
2023-04-25T05:54:39.242Z,46.47
2023-04-25T05:57:06.053Z,34.58
2023-04-25T05:59:32.881Z,45.55
2023-04-25T06:01:59.701Z,43.25
2023-04-25T06:04:27.463Z,47.10
2023-04-25T06:06:54.810Z,45.03
2023-04-25T06:09:22.805Z,41.95
2023-04-25T06:11:49.552Z,59.40
2023-04-25T06:14:16.414Z,44.15
2023-04-25T06:16:47.962Z,47.85
2023-04-25T06:19:14.717Z,51.55
2023-04-25T06:21:42.512Z,35.92
2023-04-25T06:24:09.121Z,50.03
2023-04-25T06:26:35.803Z,51.05
2023-04-25T06:29:03.750Z,50.03
2023-04-25T06:31:33.309Z,45.10
2023-04-25T06:34:01.103Z,47.83
2023-04-25T06:36:29.388Z,76.60
2023-04-25T06:39:02.327Z,42.10
2023-04-25T06:41:29.023Z,37.45
2023-04-25T06:44:00.300Z,42.38
2023-04-25T06:46:49.627Z,45.80
2023-04-25T06:49:16.405Z,39.88
2023-04-25T06:51:43.623Z,47.17
2023-04-25T06:54:10.297Z,34.35
2023-04-25T06:56:44.691Z,43.60
2023-04-25T06:59:14.205Z,41.10
2023-04-25T07:01:41.819Z,41.60
2023-04-25T07:04:21.497Z,31.13
2023-04-25T07:06:54.988Z,28.90
2023-04-25T07:09:29.215Z,30.23
2023-04-25T07:11:56.093Z,32.65
2023-04-25T07:14:22.911Z,38.95
2023-04-25T07:16:50.465Z,32.25
2023-04-25T07:19:17.705Z,47.03
2023-04-25T07:21:44.390Z,35.28
2023-04-25T07:24:12.293Z,26.17
2023-04-25T07:26:43.793Z,34.30
2023-04-25T07:29:18.380Z,32.72
2023-04-25T07:31:45.164Z,37.58
2023-04-25T07:34:11.803Z,25.98
2023-04-25T07:36:39.128Z,26.52
2023-04-25T07:39:06.017Z,36.03
2023-04-25T07:41:33.332Z,36.67
2023-04-25T07:44:00.538Z,34.70
2023-04-25T07:46:29.391Z,24.83
2023-04-25T07:48:56.172Z,31.13
2023-04-25T07:51:23.149Z,32.08
2023-04-25T07:53:54.744Z,34.35
2023-04-25T07:56:21.612Z,31.63
2023-04-25T07:58:49.983Z,24.95
2023-04-25T08:01:19.786Z,35.50
2023-04-25T08:03:52.167Z,35.85
2023-04-25T08:06:24.040Z,32.38
2023-04-25T08:09:00.614Z,35.00
2023-04-25T08:11:36.132Z,32.80
2023-04-25T08:14:03.272Z,29.60
2023-04-25T08:16:32.644Z,29.23
2023-04-25T08:19:00.976Z,35.75
2023-04-25T08:21:28.516Z,31.73
2023-04-25T08:23:58.659Z,30.58
2023-04-25T08:26:29.911Z,28.60
2023-04-25T08:28:57.300Z,28.48
2023-04-25T08:31:24.044Z,30.45
2023-04-25T08:34:01.526Z,28.58
2023-04-25T08:36:39.178Z,30.75
2023-04-25T08:39:17.817Z,29.42
2023-04-25T08:41:59.023Z,31.50
2023-04-25T08:44:25.902Z,29.63
2023-04-25T08:46:53.528Z,29.80
2023-04-25T08:49:27.804Z,29.35
2023-04-25T08:51:59.488Z,30.30
2023-04-25T08:54:35.241Z,28.83
2023-04-25T08:57:04.648Z,33.10
2023-04-25T08:59:33.401Z,29.02
2023-04-25T09:02:01.464Z,30.15
2023-04-25T09:04:28.500Z,33.70
2023-04-25T09:06:55.718Z,30.30
2023-04-25T09:09:22.868Z,29.23
2023-04-25T09:11:49.807Z,28.63
2023-04-25T09:14:18.671Z,28.42
2023-04-25T09:17:03.244Z,34.25
2023-04-25T09:19:56.063Z,28.95
2023-04-25T09:22:27.319Z,29.90
2023-04-25T09:24:54.251Z,31.00
2023-04-25T09:27:26.024Z,28.13
2023-04-25T09:30:01.404Z,28.42
2023-04-25T09:32:33.294Z,33.72
2023-04-25T09:35:00.694Z,30.15
2023-04-25T09:37:30.767Z,32.38
2023-04-25T09:40:16.418Z,30.23
2023-04-25T09:42:54.853Z,32.88
2023-04-25T09:45:22.043Z,33.65
2023-04-25T09:47:48.740Z,34.38
2023-04-25T09:50:21.235Z,31.20
2023-04-25T09:53:06.604Z,31.30
2023-04-25T09:56:01.296Z,35.83
2023-04-25T09:58:32.923Z,33.15
2023-04-25T10:01:06.614Z,34.30
2023-04-25T10:03:42.846Z,35.60
2023-04-25T10:06:24.458Z,31.77
2023-04-25T10:08:54.478Z,34.70
2023-04-25T10:11:23.980Z,33.75
2023-04-25T10:13:51.731Z,31.83
2023-04-25T10:16:19.663Z,32.05
2023-04-25T10:18:46.354Z,30.35
2023-04-25T10:21:15.123Z,27.85
2023-04-25T10:23:42.043Z,30.42
2023-04-25T10:26:13.511Z,28.83
2023-04-25T10:29:01.816Z,29.98
2023-04-25T10:31:30.399Z,30.38
2023-04-25T10:33:57.558Z,29.90
2023-04-25T10:36:25.484Z,28.88
2023-04-25T10:38:52.416Z,30.33
2023-04-25T10:41:22.327Z,30.48
2023-04-25T10:43:51.496Z,32.60
2023-04-25T10:46:27.165Z,32.17
2023-04-25T10:48:59.371Z,30.98
2023-04-25T10:51:30.787Z,30.13
2023-04-25T10:54:04.578Z,31.50
2023-04-25T10:56:41.101Z,31.77
2023-04-25T10:59:11.657Z,30.88
2023-04-25T11:01:48.038Z,30.20
2023-04-25T11:04:32.096Z,30.77
2023-04-25T11:07:21.000Z,30.38
2023-04-25T11:09:47.934Z,29.88
2023-04-25T11:12:14.821Z,29.02
2023-04-25T11:14:41.918Z,28.27
2023-04-25T11:17:08.870Z,30.48
2023-04-25T11:19:35.865Z,30.63
2023-04-25T11:22:03.929Z,32.67
2023-04-25T11:24:32.300Z,31.30
2023-04-25T11:27:04.584Z,31.25
2023-04-25T11:29:33.061Z,31.70
2023-04-25T11:32:01.726Z,30.90
2023-04-25T11:34:31.670Z,31.40
2023-04-25T11:36:58.696Z,33.33
2023-04-25T11:39:26.627Z,32.88
2023-04-25T11:41:54.496Z,31.38
2023-04-25T11:44:22.304Z,30.67
2023-04-25T11:46:49.357Z,33.33
2023-04-25T11:49:18.353Z,32.08
2023-04-25T11:51:47.253Z,31.52
2023-04-25T11:54:14.639Z,32.72
2023-04-25T11:56:46.161Z,30.30
2023-04-25T11:59:13.897Z,30.85
2023-04-25T12:01:48.041Z,36.30
2023-04-25T12:04:19.401Z,30.42
2023-04-25T12:06:48.842Z,33.97
2023-04-25T12:09:19.296Z,33.25
2023-04-25T12:11:47.992Z,34.28
2023-04-25T12:14:29.683Z,35.88
2023-04-25T12:16:58.693Z,32.05
2023-04-25T12:19:26.829Z,32.95
2023-04-25T12:21:58.472Z,32.50
2023-04-25T12:24:28.097Z,31.92
2023-04-25T12:27:04.555Z,30.60
2023-04-25T12:29:41.951Z,32.00
2023-04-25T12:32:14.919Z,33.38
2023-04-25T12:34:41.534Z,33.47
2023-04-25T12:37:08.354Z,30.98
2023-04-25T12:39:35.150Z,31.67
2023-04-25T12:42:01.886Z,32.83
2023-04-25T12:44:28.540Z,32.17
2023-04-25T12:46:56.081Z,30.88
2023-04-25T12:49:23.240Z,31.60
2023-04-25T12:51:50.117Z,30.67
2023-04-25T12:54:16.849Z,28.67
2023-04-25T12:56:43.590Z,29.85
2023-04-25T12:59:10.479Z,32.78
2023-04-25T13:01:37.509Z,33.03
2023-04-25T13:04:04.616Z,32.00
2023-04-25T13:06:32.116Z,32.85
2023-04-25T13:08:58.878Z,34.35
2023-04-25T13:11:25.632Z,34.25
2023-04-25T13:13:52.703Z,33.72
2023-04-25T13:16:21.772Z,32.60
2023-04-25T13:18:48.801Z,33.60
2023-04-25T13:21:15.677Z,33.53
2023-04-25T13:23:47.166Z,34.40
2023-04-25T13:26:13.853Z,33.10
2023-04-25T13:28:42.934Z,33.70
2023-04-25T13:31:11.961Z,33.83
2023-04-25T13:33:38.652Z,33.38
2023-04-25T13:36:06.224Z,37.30
2023-04-25T13:38:33.353Z,34.58
2023-04-25T13:40:59.949Z,34.53
2023-04-25T13:43:26.700Z,30.98
2023-04-25T13:45:53.494Z,33.15
2023-04-25T13:48:20.869Z,35.05
2023-04-25T13:50:47.558Z,35.53
2023-04-25T13:53:14.322Z,33.95
2023-04-25T13:55:41.041Z,33.50
2023-04-25T13:58:10.831Z,33.25
2023-04-25T14:00:44.031Z,33.03
2023-04-25T14:03:10.809Z,34.47
2023-04-25T14:05:40.878Z,34.00
2023-04-25T14:08:10.807Z,32.83
2023-04-25T14:10:38.126Z,32.30
2023-04-25T14:13:06.181Z,35.17
2023-04-25T14:15:33.683Z,36.33
2023-04-25T14:18:01.555Z,33.25
2023-04-25T14:20:28.631Z,35.88
2023-04-25T14:22:56.896Z,36.33
2023-04-25T14:25:24.218Z,32.97
2023-04-25T14:27:51.522Z,32.17
2023-04-25T14:30:19.902Z,33.50
2023-04-25T14:32:47.018Z,34.72
2023-04-25T14:35:13.988Z,37.65
2023-04-25T14:37:41.321Z,34.85
2023-04-25T14:40:11.390Z,30.13
2023-04-25T14:42:38.374Z,35.60
2023-04-25T14:45:07.514Z,36.63
2023-04-25T14:47:34.698Z,38.30
2023-04-25T14:50:02.543Z,34.75
2023-04-25T14:52:29.684Z,35.67
2023-04-25T14:54:56.416Z,35.03
2023-04-25T14:57:23.193Z,34.17
2023-04-25T14:59:49.807Z,30.55
2023-04-25T15:02:16.726Z,34.05
2023-04-25T15:04:43.566Z,36.80
2023-04-25T15:07:11.139Z,35.15
2023-04-25T15:09:37.760Z,33.08
2023-04-25T15:12:04.662Z,35.85
2023-04-25T15:14:31.506Z,34.40
2023-04-25T15:16:58.278Z,35.53
2023-04-25T15:19:25.007Z,34.35
2023-04-25T15:21:51.646Z,36.80
2023-04-25T15:24:18.991Z,35.63
2023-04-25T15:26:46.664Z,33.97
2023-04-25T15:29:13.298Z,30.77
2023-04-25T15:31:39.902Z,29.60
2023-04-25T15:34:06.926Z,30.70
2023-04-25T15:36:33.616Z,28.58
2023-04-25T15:39:00.302Z,28.13
2023-04-25T15:41:27.257Z,26.42
2023-04-25T15:43:54.887Z,27.67
2023-04-25T15:46:24.530Z,29.00
2023-04-25T15:48:51.194Z,30.85
2023-04-25T15:51:17.951Z,29.17
2023-04-25T15:53:44.804Z,28.98
2023-04-25T15:56:11.452Z,30.17
2023-04-25T15:58:38.059Z,31.33
2023-04-25T16:01:04.988Z,28.92
2023-04-25T16:03:34.493Z,28.50
2023-04-25T16:06:02.982Z,30.80
2023-04-25T16:08:29.756Z,30.02
2023-04-25T16:10:57.346Z,28.20
2023-04-25T16:13:23.998Z,30.52
2023-04-25T16:15:50.804Z,30.55
2023-04-25T16:18:18.065Z,30.58
2023-04-25T16:20:45.006Z,31.17
2023-04-25T16:23:11.652Z,32.97
2023-04-25T16:25:38.363Z,32.75
2023-04-25T16:28:05.393Z,31.92
2023-04-25T16:30:32.257Z,29.95
2023-04-25T16:32:59.032Z,30.35
2023-04-25T16:35:26.042Z,32.40
2023-04-25T16:37:52.749Z,32.10
2023-04-25T16:40:19.565Z,32.58
2023-04-25T16:42:46.533Z,30.33
2023-04-25T16:45:14.240Z,31.80
2023-04-25T16:47:40.948Z,33.58
2023-04-25T16:50:08.254Z,32.78
2023-04-25T16:52:35.186Z,28.70
2023-04-25T16:55:01.855Z,31.98
2023-04-25T16:57:28.699Z,31.95
2023-04-25T16:59:56.553Z,31.35
2023-04-25T17:02:23.404Z,31.70
2023-04-25T17:04:50.267Z,34.40
2023-04-25T17:07:17.951Z,31.50
2023-04-25T17:09:44.795Z,33.20
2023-04-25T17:12:11.447Z,29.55
2023-04-25T17:14:38.963Z,31.60
2023-04-25T17:17:05.650Z,31.42
2023-04-25T17:19:32.386Z,30.17
2023-04-25T17:21:59.119Z,31.48
2023-04-25T17:24:25.884Z,30.58
2023-04-25T17:26:52.586Z,30.17
2023-04-25T17:29:19.333Z,35.90
2023-04-25T17:31:46.606Z,31.75
2023-04-25T17:34:17.780Z,29.48
2023-04-25T17:36:48.338Z,29.00
2023-04-25T17:39:17.035Z,31.00
2023-04-25T17:41:44.461Z,29.83
2023-04-25T17:44:11.820Z,30.25
2023-04-25T17:46:38.846Z,28.90
2023-04-25T17:49:06.040Z,28.23
2023-04-25T17:51:32.824Z,28.40
2023-04-25T17:53:59.406Z,28.60
2023-04-25T17:56:27.604Z,28.30
2023-04-25T17:58:55.524Z,30.13
2023-04-25T18:01:22.713Z,30.33
2023-04-25T18:03:50.417Z,32.22
2023-04-25T18:06:18.137Z,31.45
2023-04-25T18:08:45.263Z,30.50
2023-04-25T18:11:12.232Z,30.23
2023-04-25T18:13:40.608Z,30.05
2023-04-25T18:16:07.991Z,30.02
2023-04-25T18:18:35.932Z,29.75
2023-04-25T18:21:05.016Z,30.55
2023-04-25T18:23:33.675Z,31.17
2023-04-25T18:26:00.426Z,31.55
2023-04-25T18:28:27.021Z,24.52
2023-04-25T18:30:54.194Z,25.83
2023-04-25T18:33:23.724Z,27.02
2023-04-25T18:35:58.817Z,25.70
2023-04-25T18:41:06.172Z,24.95
2023-04-25T18:46:11.235Z,26.52
2023-04-25T18:48:37.926Z,26.35
2023-04-25T18:51:05.407Z,25.75
2023-04-25T18:53:32.265Z,24.90
2023-04-25T18:55:58.958Z,25.23
2023-04-25T18:58:26.210Z,28.33
2023-04-25T19:00:53.359Z,23.13
2023-04-25T19:03:21.753Z,22.48
2023-04-25T19:05:48.523Z,22.50
2023-04-25T19:08:15.162Z,23.83
2023-04-25T19:10:41.942Z,22.88
2023-04-25T19:13:08.594Z,22.95
2023-04-25T19:15:35.649Z,24.42
2023-04-25T19:18:02.713Z,25.70
2023-04-25T19:20:29.418Z,23.35
2023-04-25T19:22:56.676Z,22.92
2023-04-25T19:25:24.682Z,23.08
2023-04-25T19:27:51.340Z,23.98
2023-04-25T19:30:18.336Z,23.20
2023-04-25T19:32:45.764Z,23.85
2023-04-25T19:35:12.720Z,24.55
2023-04-25T19:37:40.983Z,24.67
2023-04-25T19:40:08.358Z,23.05
2023-04-25T19:42:35.328Z,23.35
2023-04-25T19:45:01.967Z,23.02
2023-04-25T19:47:28.640Z,24.48
2023-04-25T19:49:55.515Z,22.55
2023-04-25T19:52:22.175Z,22.23
2023-04-25T19:54:48.812Z,29.65
2023-04-25T19:57:15.449Z,27.95
2023-04-25T19:59:45.564Z,25.10
2023-04-25T20:02:12.191Z,24.10
2023-04-25T20:04:38.907Z,22.92
2023-04-25T20:07:05.620Z,21.35
2023-04-25T20:09:32.253Z,23.02
2023-04-25T20:11:58.931Z,21.33
2023-04-25T20:14:26.023Z,22.48
2023-04-25T20:16:53.801Z,21.52
2023-04-25T20:19:20.946Z,22.50
2023-04-25T20:21:47.593Z,22.27
2023-04-25T20:24:14.195Z,21.95
2023-04-25T20:26:40.934Z,22.38
2023-04-25T20:29:09.635Z,24.27
2023-04-25T20:31:37.036Z,21.50
2023-04-25T20:34:04.170Z,21.90
2023-04-25T20:36:31.958Z,24.27
2023-04-25T20:38:58.614Z,29.00
2023-04-25T20:41:25.427Z,35.55
2023-04-25T20:43:53.168Z,41.22
2023-04-25T20:46:20.091Z,40.47
2023-04-25T20:48:46.769Z,41.95
2023-04-25T20:51:13.391Z,52.42
2023-04-25T20:53:39.987Z,47.65
2023-04-25T20:56:06.732Z,29.35
2023-04-25T20:58:33.361Z,24.30
2023-04-25T21:01:01.133Z,22.10
2023-04-25T21:03:27.945Z,22.73
2023-04-25T21:05:54.902Z,22.63
2023-04-25T21:08:21.583Z,23.00
2023-04-25T21:10:48.646Z,23.45
2023-04-25T21:13:15.493Z,24.15
2023-04-25T21:15:42.162Z,24.60
2023-04-25T21:18:08.918Z,24.05
2023-04-25T21:20:36.083Z,23.38
2023-04-25T21:23:02.899Z,23.73
2023-04-25T21:25:31.185Z,23.95
2023-04-25T21:27:58.882Z,24.70
2023-04-25T21:30:26.113Z,25.08
2023-04-25T21:32:53.327Z,24.70
2023-04-25T21:35:21.690Z,25.20
2023-04-25T21:37:49.080Z,23.70
2023-04-25T21:40:15.956Z,24.45
2023-04-25T21:42:44.357Z,26.67
2023-04-25T21:45:11.417Z,24.42
2023-04-25T21:47:38.133Z,24.30
2023-04-25T21:50:05.184Z,24.15
2023-04-25T21:52:32.196Z,24.05
2023-04-25T21:54:58.884Z,24.27
2023-04-25T21:57:26.240Z,23.00
2023-04-25T21:59:53.392Z,25.00
2023-04-25T22:02:20.248Z,23.90
2023-04-25T22:04:47.502Z,24.35
2023-04-25T22:07:14.854Z,22.75
2023-04-25T22:09:53.649Z,25.40
2023-04-25T22:12:22.478Z,24.67
2023-04-25T22:14:49.125Z,26.17
2023-04-25T22:17:15.771Z,26.63
2023-04-25T22:19:43.136Z,23.52
2023-04-25T22:22:09.776Z,23.73
2023-04-25T22:24:36.442Z,22.77
2023-04-25T22:27:03.083Z,22.60
2023-04-25T22:29:29.703Z,23.48
2023-04-25T22:31:56.721Z,24.35
2023-04-25T22:34:23.390Z,26.65
2023-04-25T22:36:49.993Z,25.88
2023-04-25T22:39:17.449Z,24.73
2023-04-25T22:41:44.083Z,24.02
2023-04-25T22:44:11.808Z,24.00
2023-04-25T22:46:38.418Z,25.38
2023-04-25T22:49:05.304Z,23.52
2023-04-25T22:51:32.992Z,23.92
2023-04-25T22:54:00.493Z,28.73
2023-04-25T22:56:29.667Z,22.65
2023-04-25T22:58:56.506Z,23.90
2023-04-25T23:01:23.248Z,22.30
2023-04-25T23:03:49.975Z,23.95
2023-04-25T23:06:17.047Z,23.00
2023-04-25T23:08:44.340Z,24.35
2023-04-25T23:11:10.987Z,23.90
2023-04-25T23:13:37.658Z,23.45
2023-04-25T23:16:10.996Z,23.20
2023-04-25T23:18:39.054Z,26.00
2023-04-25T23:21:09.294Z,21.63
2023-04-25T23:23:36.628Z,21.77
2023-04-25T23:26:10.516Z,21.95
2023-04-25T23:28:41.515Z,22.47
2023-04-25T23:31:09.994Z,24.95
2023-04-25T23:33:36.978Z,23.85
2023-04-25T23:36:03.993Z,24.20
2023-04-25T23:38:30.801Z,22.73
2023-04-25T23:40:57.414Z,22.08
2023-04-25T23:43:24.050Z,22.13
2023-04-25T23:45:50.730Z,25.88
2023-04-25T23:48:17.432Z,22.77
2023-04-25T23:50:44.080Z,20.98
2023-04-25T23:53:11.286Z,23.30
2023-04-25T23:55:37.966Z,22.00
2023-04-25T23:58:04.685Z,19.17
